Time;durP1;ratioP1;P1;durP2;ratioP2;P2;SDS_P1;SDS_P2;PMS_P1;PMS_P2;Temp;Humidity;BMP_temperature;BMP_pressure;BME280_temperature;BME280_humidity;BME280_pressure;Samples;Min_cycle;Max_cycle;Signal;HPM_P1;HPM_P2
2023/05/05 00:01:57;;;;;;;9.85;2.50;;;;;;;-144.73;70.45;54300.97;5051237;28;21163;-71
2023/05/05 00:04:23;;;;;;;12.50;3.15;;;;;;;-144.73;71.34;54245.56;5053382;28;20020;-71
2023/05/05 00:06:49;;;;;;;14.32;2.55;;;;;;;-144.73;71.03;54280.44;5053207;28;20028;-71
2023/05/05 00:09:14;;;;;;;10.35;2.53;;;;;;;-144.73;71.13;54245.56;5052575;28;20081;-70
2023/05/05 00:11:40;;;;;;;8.38;2.50;;;;;;;-144.73;71.79;54317.38;5052901;28;20104;-70
2023/05/05 00:14:05;;;;;;;11.23;2.63;;;;;;;-144.73;70.93;54210.66;5052567;28;20036;-71
2023/05/05 00:16:30;;;;;;;13.77;3.60;;;;;;;-144.73;70.33;54251.72;5070727;28;20040;-71
2023/05/05 00:18:56;;;;;;;10.25;3.25;;;;;;;-144.73;70.83;54296.88;5070154;28;20498;-71
2023/05/05 00:21:22;;;;;;;11.68;2.88;;;;;;;-144.73;71.03;54259.91;5070463;28;20115;-71
2023/05/05 00:23:47;;;;;;;14.55;3.33;;;;;;;-144.73;70.48;54247.59;5070687;28;20375;-71
2023/05/05 00:26:12;;;;;;;14.40;2.90;;;;;;;-144.73;71.32;54276.34;5052596;28;20044;-71
2023/05/05 00:28:38;;;;;;;8.15;3.13;;;;;;;-144.73;71.57;54235.28;5070465;28;20059;-70
2023/05/05 00:31:03;;;;;;;12.25;3.22;;;;;;;-144.73;71.75;54251.72;5051479;28;20518;-71
2023/05/05 00:33:28;;;;;;;10.10;2.75;;;;;;;-144.73;71.94;54309.19;5052719;28;20048;-71
2023/05/05 00:35:54;;;;;;;13.10;2.90;;;;;;;-144.73;71.79;54288.66;5051991;28;20036;-71
2023/05/05 00:38:19;;;;;;;14.02;2.83;;;;;;;-144.73;71.59;54243.50;5048949;28;20032;-71
2023/05/05 00:40:44;;;;;;;10.75;2.50;;;;;;;-144.73;72.50;54276.34;5051669;28;20020;-71
2023/05/05 00:43:11;;;;;;;6.88;2.55;;;;;;;-144.73;71.88;54313.28;5070642;28;20028;-70
2023/05/05 00:45:41;;;;;;;16.98;3.03;;;;;;;-144.73;72.55;54251.72;5052407;28;20034;-71
2023/05/05 00:48:07;;;;;;;24.63;2.47;;;;;;;-144.73;72.40;54276.34;5081777;28;20051;-71
2023/05/05 00:50:33;;;;;;;10.57;3.08;;;;;;;-144.73;73.15;54317.38;5069639;28;20036;-71
2023/05/05 00:53:01;;;;;;;9.77;2.97;;;;;;;-144.73;73.76;54354.34;5069775;28;20055;-71
2023/05/05 00:55:28;;;;;;;8.60;2.90;;;;;;;-144.73;73.58;54292.75;5067565;28;20028;-70
2023/05/05 00:57:54;;;;;;;6.22;2.60;;;;;;;-144.73;74.23;54342.03;5051930;28;20037;-70
2023/05/05 01:00:20;;;;;;;14.00;3.13;;;;;;;-144.73;74.93;54259.91;5085359;28;20028;-70
2023/05/05 01:02:45;;;;;;;9.63;2.83;;;;;;;-144.73;75.50;54288.66;5052139;28;20032;-70
2023/05/05 01:05:12;;;;;;;13.07;3.33;;;;;;;-144.73;74.48;54292.75;5069139;28;20561;-70
2023/05/05 01:08:01;;;;;;;11.15;2.67;;;;;;;-144.73;75.11;54276.34;5069548;28;20036;-70
2023/05/05 01:10:44;;;;;;;10.20;3.10;;;;;;;-144.73;74.92;54259.91;5051392;28;20024;-70
2023/05/05 01:13:24;;;;;;;9.40;2.88;;;;;;;-144.73;74.91;54284.56;5068628;28;20796;-70
2023/05/05 01:15:54;;;;;;;8.75;2.60;;;;;;;-144.73;74.96;54303.03;5069227;28;20112;-70
2023/05/05 01:18:34;;;;;;;16.15;3.30;;;;;;;-144.73;75.22;54313.28;5052251;28;20036;-70
2023/05/05 01:21:15;;;;;;;14.73;2.47;;;;;;;-144.73;75.79;54288.66;5069478;28;20016;-70
2023/05/05 01:24:09;;;;;;;17.88;3.45;;;;;;;-144.73;75.45;54247.59;5049605;28;20030;-70
2023/05/05 01:27:18;;;;;;;7.07;2.25;;;;;;;-144.73;75.81;54276.34;5066641;28;20032;-70
2023/05/05 01:29:56;;;;;;;17.75;2.97;;;;;;;-144.73;75.81;54239.41;5049330;28;20067;-70
2023/05/05 01:32:25;;;;;;;17.20;3.85;;;;;;;-144.73;76.00;54294.81;5051249;28;20028;-70
2023/05/05 01:34:57;;;;;;;20.42;3.45;;;;;;;-144.73;76.05;54313.28;5068679;28;20032;-70
2023/05/05 01:37:28;;;;;;;;;;;;;;;-144.73;76.99;54268.13;5051971;28;20368;-70
2023/05/05 01:39:58;;;;;;;9.63;2.83;;;;;;;-144.73;76.57;54276.34;5050801;28;20387;-70
2023/05/05 01:42:26;;;;;;;15.77;2.88;;;;;;;-144.73;76.69;54278.41;5068622;28;20033;-70
2023/05/05 01:44:52;;;;;;;11.57;3.13;;;;;;;-144.73;76.79;54243.50;5051068;28;20120;-70
2023/05/05 01:47:20;;;;;;;15.13;2.90;;;;;;;-144.73;77.21;54268.13;5051755;28;20029;-70
2023/05/05 01:49:47;;;;;;;10.80;2.88;;;;;;;-144.73;77.07;54288.66;5066588;28;20025;-70
2023/05/05 01:52:13;;;;;;;14.25;3.63;;;;;;;-144.73;76.92;54342.03;5068227;28;20441;-70
2023/05/05 01:54:40;;;;;;;5.88;2.55;;;;;;;-144.73;76.75;54268.13;5068828;28;20086;-70
2023/05/05 01:57:07;;;;;;;9.98;2.97;;;;;;;-144.73;77.54;54288.66;5050721;28;20051;-70
2023/05/05 01:59:33;;;;;;;13.57;3.15;;;;;;;-144.73;77.21;54253.75;5068321;28;20020;-70
2023/05/05 02:02:00;;;;;;;11.98;3.08;;;;;;;-144.73;78.63;54247.59;5050983;28;20028;-70
2023/05/05 02:04:28;;;;;;;14.57;2.95;;;;;;;-144.73;79.36;54333.81;5069292;28;20016;-69
2023/05/05 02:06:55;;;;;;;20.10;3.85;;;;;;;-144.73;80.10;54288.66;5066287;28;20033;-70
2023/05/05 02:09:25;;;;;;;9.50;2.47;;;;;;;-144.73;79.74;54300.97;5050652;28;20458;-70
2023/05/05 02:11:51;;;;;;;12.15;2.85;;;;;;;-144.73;80.18;54300.97;5050721;28;20033;-70
2023/05/05 02:14:18;;;;;;;6.90;2.75;;;;;;;-144.73;80.81;54292.75;5068316;28;20041;-70
2023/05/05 02:16:45;;;;;;;11.85;3.22;;;;;;;-144.73;81.59;54251.72;5069036;28;20044;-70
2023/05/05 02:19:12;;;;;;;16.10;2.95;;;;;;;-144.73;81.61;54268.13;5067981;28;20574;-70
2023/05/05 02:21:38;;;;;;;15.10;3.45;;;;;;;-144.73;82.31;54276.34;5050542;28;20123;-70
2023/05/05 02:24:04;;;;;;;12.65;2.70;;;;;;;-144.73;82.33;54296.88;5067505;28;20101;-70
2023/05/05 02:26:33;;;;;;;9.40;2.70;;;;;;;-144.73;82.67;54296.88;5068994;28;20074;-70
2023/05/05 02:29:44;;;;;;;12.07;2.90;;;;;;;-144.73;83.69;54315.34;5068253;28;20039;-70
2023/05/05 02:32:17;;;;;;;14.75;3.17;;;;;;;-144.73;84.58;54245.56;4986106;28;20042;-70
2023/05/05 02:34:45;;;;;;;11.45;3.00;;;;;;;-144.73;84.26;54259.91;4986482;28;20034;-70
2023/05/05 02:37:17;;;;;;;15.18;3.30;;;;;;;-144.73;86.43;54305.06;5038735;28;20032;-70
2023/05/05 02:40:01;;;;;;;10.32;2.92;;;;;;;-144.73;86.23;54296.88;5050078;28;20107;-70
2023/05/05 02:42:41;;;;;;;16.80;3.58;;;;;;;-144.73;86.40;54251.72;5049917;28;20028;-70
2023/05/05 02:45:13;;;;;;;14.75;2.88;;;;;;;-144.73;86.79;54276.34;5078161;28;20029;-70
2023/05/05 02:47:39;;;;;;;11.65;3.33;;;;;;;-144.73;88.21;54296.88;5050352;28;20427;-70
2023/05/05 02:50:05;;;;;;;10.20;3.05;;;;;;;-144.73;88.72;54309.19;5049884;28;20052;-70
2023/05/05 02:52:32;;;;;;;14.85;2.95;;;;;;;-144.73;88.89;54276.34;5067962;28;20032;-71
2023/05/05 02:54:58;;;;;;;11.93;3.25;;;;;;;-144.73;90.02;54276.34;5067539;28;20048;-70
2023/05/05 02:57:47;;;;;;;16.88;3.30;;;;;;;-144.73;92.44;54268.13;5050181;28;20036;-70
2023/05/05 03:00:22;;;;;;;12.68;3.38;;;;;;;-144.73;92.58;54309.19;5049163;28;20115;-70
2023/05/05 03:03:18;;;;;;;9.88;3.42;;;;;;;-144.73;92.99;54278.41;5049808;28;20052;-70
2023/05/05 03:05:59;;;;;;;12.57;3.35;;;;;;;-144.73;93.06;54305.06;5048141;28;20035;-70
2023/05/05 03:08:39;;;;;;;20.02;3.30;;;;;;;-144.73;93.18;54280.44;5068221;28;20032;-70
2023/05/05 03:11:06;;;;;;;16.48;3.47;;;;;;;-144.73;93.39;54286.59;5060102;28;20511;-70
2023/05/05 03:13:35;;;;;;;13.77;3.45;;;;;;;-144.73;95.32;54276.34;5041918;28;20122;-71
2023/05/05 03:16:05;;;;;;;16.38;3.65;;;;;;;-144.73;95.70;54259.91;5049285;28;20021;-70
2023/05/05 03:18:33;;;;;;;13.60;3.75;;;;;;;-144.73;97.52;54255.81;5065828;28;20024;-70
2023/05/05 03:21:06;;;;;;;14.63;3.90;;;;;;;-144.73;97.69;54276.34;5061784;28;20052;-69
2023/05/05 03:23:32;;;;;;;17.42;3.20;;;;;;;-144.73;98.82;54235.28;5043652;28;20060;-72
2023/05/05 03:25:58;;;;;;;17.10;3.85;;;;;;;-144.73;98.66;54288.66;5043497;28;20016;-70
2023/05/05 03:28:23;;;;;;;15.00;3.42;;;;;;;-144.73;99.07;54292.75;5051738;28;20039;-70
2023/05/05 03:30:48;;;;;;;11.55;3.30;;;;;;;-144.73;100.00;54311.22;5052940;28;20024;-70
2023/05/05 03:33:14;;;;;;;14.35;3.55;;;;;;;-144.73;100.00;54294.81;5071717;28;20052;-70
2023/05/05 03:35:40;;;;;;;9.50;3.58;;;;;;;-144.73;100.00;54305.06;5053813;28;20021;-70
2023/05/05 03:38:05;;;;;;;11.95;3.70;;;;;;;-144.73;100.00;54300.97;5084894;28;20033;-70
2023/05/05 03:40:31;;;;;;;12.65;3.67;;;;;;;-144.73;100.00;54292.75;5071285;28;20016;-71
2023/05/05 03:42:56;;;;;;;16.83;4.38;;;;;;;-144.73;100.00;54294.81;5053070;28;20085;-71
2023/05/05 03:45:21;;;;;;;15.88;4.00;;;;;;;-144.73;100.00;54325.59;5087030;28;20020;-71
2023/05/05 03:47:46;;;;;;;14.18;3.80;;;;;;;-144.73;100.00;54282.50;5071184;28;20052;-71
2023/05/05 03:50:12;;;;;;;15.13;4.55;;;;;;;-144.73;100.00;54255.81;5053366;28;20070;-70
2023/05/05 03:52:37;;;;;;;19.08;4.95;;;;;;;-144.73;100.00;54284.56;5053470;28;20043;-70
2023/05/05 03:55:03;;;;;;;19.08;4.47;;;;;;;-144.73;100.00;54288.66;5053111;28;20099;-71
2023/05/05 03:57:28;;;;;;;20.33;4.75;;;;;;;-144.73;100.00;54284.56;5070925;28;20052;-71
2023/05/05 03:59:53;;;;;;;20.73;4.72;;;;;;;-144.73;100.00;54284.56;5048928;28;20020;-71
2023/05/05 04:02:19;;;;;;;15.02;4.45;;;;;;;-144.73;100.00;54313.28;5062673;28;20024;-71
2023/05/05 04:04:44;;;;;;;13.85;4.85;;;;;;;-144.73;100.00;54296.88;5065254;28;20024;-71
2023/05/05 04:07:10;;;;;;;14.25;5.20;;;;;;;-144.73;100.00;54313.28;5044936;28;20040;-72
2023/05/05 04:09:38;;;;;;;19.05;5.50;;;;;;;-144.73;100.00;54231.19;5046247;28;20028;-72
2023/05/05 04:12:03;;;;;;;20.45;5.35;;;;;;;-144.73;100.00;54268.13;5070529;28;20036;-72
2023/05/05 04:14:29;;;;;;;23.88;5.68;;;;;;;-144.73;100.00;54268.13;5069947;28;20028;-71
2023/05/05 04:16:54;;;;;;;27.63;5.88;;;;;;;-144.73;100.00;54284.56;5052847;28;20036;-72
2023/05/05 04:19:20;;;;;;;18.83;5.30;;;;;;;-144.73;100.00;54276.34;5081929;28;20029;-70
2023/05/05 04:21:45;;;;;;;27.60;6.38;;;;;;;-144.73;100.00;54313.28;5052681;28;20048;-71
2023/05/05 04:24:10;;;;;;;19.63;6.55;;;;;;;-144.73;100.00;54288.66;5070313;28;20029;-71
2023/05/05 04:26:36;;;;;;;15.77;4.68;;;;;;;-144.73;100.00;54288.66;5052909;28;20036;-71
2023/05/05 04:29:01;;;;;;;25.50;6.30;;;;;;;-144.73;100.00;54284.56;5048593;28;20111;-71
2023/05/05 04:31:26;;;;;;;27.40;5.65;;;;;;;-144.73;100.00;54296.88;5070357;28;20083;-71
2023/05/05 04:33:52;;;;;;;27.50;6.53;;;;;;;-144.73;100.00;54305.06;5069675;28;20086;-71
2023/05/05 04:36:18;;;;;;;18.90;6.53;;;;;;;-144.73;100.00;54278.41;5052782;28;20040;-72
2023/05/05 04:38:43;;;;;;;21.13;7.00;;;;;;;-144.73;100.00;54309.19;5048408;28;20037;-71
2023/05/05 04:41:08;;;;;;;18.50;5.88;;;;;;;-144.73;100.00;54251.72;5082285;28;20074;-71
2023/05/05 04:43:34;;;;;;;21.63;6.72;;;;;;;-144.73;100.00;54303.03;5052179;28;20115;-72
2023/05/05 04:46:00;;;;;;;21.77;8.15;;;;;;;-144.73;100.00;54305.06;5086014;28;20111;-72
2023/05/05 04:48:25;;;;;;;17.83;6.75;;;;;;;-144.73;100.00;54307.13;5052216;28;20024;-72
2023/05/05 04:50:50;;;;;;;20.40;5.95;;;;;;;-144.73;100.00;54325.59;5051716;28;20035;-71
2023/05/05 04:53:16;;;;;;;18.90;6.13;;;;;;;-144.73;100.00;54292.75;5047713;28;20052;-72
2023/05/05 04:55:41;;;;;;;21.95;6.53;;;;;;;-144.73;100.00;54251.72;5070377;28;20414;-71
2023/05/05 04:58:06;;;;;;;18.25;7.40;;;;;;;-144.73;100.00;54294.81;5069408;28;20052;-70
2023/05/05 05:00:32;;;;;;;25.27;6.18;;;;;;;-144.73;100.00;54321.50;5051932;28;20105;-70
2023/05/05 05:02:57;;;;;;;21.17;6.72;;;;;;;-144.73;100.00;54294.81;5051882;28;20074;-70
2023/05/05 05:05:22;;;;;;;16.90;6.28;;;;;;;-144.73;100.00;54303.03;5052109;28;20040;-70
2023/05/05 05:07:48;;;;;;;18.80;6.68;;;;;;;-144.73;100.00;54284.56;5051724;28;20062;-70
2023/05/05 05:10:13;;;;;;;21.90;6.75;;;;;;;-144.73;100.00;54305.06;5044424;28;20107;-70
2023/05/05 05:12:39;;;;;;;28.30;6.68;;;;;;;-144.73;100.00;54259.91;5049096;28;20058;-70
2023/05/05 05:15:05;;;;;;;27.58;6.65;;;;;;;-144.73;100.00;54276.34;5051238;28;20372;-70
2023/05/05 05:17:30;;;;;;;19.98;6.38;;;;;;;-144.73;100.00;54313.28;5074508;28;20032;-70
2023/05/05 05:19:58;;;;;;;22.20;7.50;;;;;;;-144.73;100.00;54321.50;5051841;28;20029;-71
2023/05/05 05:22:23;;;;;;;20.27;6.00;;;;;;;-144.73;100.00;54280.44;5069527;28;20107;-71
2023/05/05 05:24:49;;;;;;;20.38;6.45;;;;;;;-144.73;100.00;54329.72;5051324;28;20230;-71
2023/05/05 05:27:14;;;;;;;31.45;6.43;;;;;;;-144.73;100.00;54309.19;5047777;28;20036;-70
2023/05/05 05:29:40;;;;;;;22.98;6.50;;;;;;;-144.73;100.00;54337.91;5050694;28;20085;-70
2023/05/05 05:32:05;;;;;;;14.77;5.78;;;;;;;-144.73;100.00;54282.50;5051552;28;20044;-70
2023/05/05 05:34:30;;;;;;;25.55;6.75;;;;;;;-144.73;100.00;54280.44;5051724;28;20024;-70
2023/05/05 05:36:56;;;;;;;18.20;7.35;;;;;;;-144.73;100.00;54276.34;5051105;28;20040;-71
2023/05/05 05:39:21;;;;;;;22.63;7.90;;;;;;;-144.73;100.00;54309.19;5051485;28;20020;-71
2023/05/05 05:41:46;;;;;;;19.52;6.22;;;;;;;-144.73;100.00;54284.56;5068260;28;20490;-71
2023/05/05 05:44:11;;;;;;;19.05;5.80;;;;;;;-144.73;100.00;54313.28;5084299;28;20032;-71
2023/05/05 05:46:37;;;;;;;17.75;6.30;;;;;;;-144.73;100.00;54276.34;5051614;28;20039;-71
2023/05/05 05:49:02;;;;;;;19.73;6.22;;;;;;;-144.73;100.00;54296.88;5069059;28;20063;-71
2023/05/05 05:51:28;;;;;;;19.00;6.18;;;;;;;-144.73;100.00;54296.88;5068477;28;20033;-71
2023/05/05 05:53:53;;;;;;;23.00;6.68;;;;;;;-144.73;100.00;54290.72;5069230;28;20028;-72
2023/05/05 05:56:18;;;;;;;18.08;7.15;;;;;;;-144.73;100.00;54309.19;5069372;28;20159;-71
2023/05/05 05:58:44;;;;;;;20.33;6.55;;;;;;;-144.73;100.00;54300.97;5050024;28;20487;-71
2023/05/05 06:01:09;;;;;;;19.42;7.22;;;;;;;-144.73;100.00;54309.19;5050513;28;20040;-71
2023/05/05 06:03:35;;;;;;;17.10;5.97;;;;;;;-144.73;100.00;54268.13;5045046;28;20028;-71
2023/05/05 06:06:00;;;;;;;19.27;6.25;;;;;;;-144.73;100.00;54288.66;5065205;28;20019;-72
2023/05/05 06:08:26;;;;;;;17.60;6.63;;;;;;;-144.73;100.00;54292.75;5048668;28;20444;-71
2023/05/05 06:10:51;;;;;;;20.75;6.55;;;;;;;-144.73;100.00;54325.59;5054241;28;20124;-71
2023/05/05 06:13:17;;;;;;;19.73;6.00;;;;;;;-144.73;100.00;54294.81;5068976;28;20028;-71
2023/05/05 06:15:42;;;;;;;19.77;6.07;;;;;;;-144.73;100.00;54278.41;5045273;28;20128;-71
2023/05/05 06:18:08;;;;;;;14.43;6.15;;;;;;;-144.73;100.00;54292.75;5047080;28;20036;-72
2023/05/05 06:20:33;;;;;;;21.52;6.07;;;;;;;-144.73;100.00;54309.19;5050166;28;20112;-71
2023/05/05 06:22:58;;;;;;;23.75;6.50;;;;;;;-144.73;100.00;54266.06;5050519;28;20482;-71
2023/05/05 06:25:24;;;;;;;14.20;6.20;;;;;;;-144.73;100.00;54284.56;5050442;28;21582;-71
2023/05/05 06:27:49;;;;;;;27.13;6.25;;;;;;;-144.73;100.00;54264.03;5068015;28;20032;-71
2023/05/05 06:30:14;;;;;;;17.17;6.70;;;;;;;-144.73;100.00;54288.66;5050193;28;20036;-70
2023/05/05 06:32:40;;;;;;;24.27;6.50;;;;;;;-144.73;100.00;54321.50;5050820;28;20044;-72
2023/05/05 06:35:06;;;;;;;16.08;5.90;;;;;;;-144.73;100.00;54342.03;5050542;28;20025;-71
2023/05/05 06:37:31;;;;;;;23.33;6.70;;;;;;;-144.73;100.00;54296.88;5050967;28;20024;-71
2023/05/05 06:39:56;;;;;;;16.10;6.03;;;;;;;-144.73;100.00;54243.50;5079355;28;20020;-71
2023/05/05 06:42:22;;;;;;;22.77;6.30;;;;;;;-144.73;100.00;54235.28;5050319;28;20040;-72
2023/05/05 06:44:47;;;;;;;23.05;6.93;;;;;;;-144.73;100.00;54276.34;5047875;28;20047;-72
2023/05/05 06:47:12;;;;;;;22.48;5.95;;;;;;;-144.73;100.00;54282.50;5068804;28;20106;-72
2023/05/05 06:49:38;;;;;;;19.05;6.55;;;;;;;-144.73;100.00;54313.28;5050067;28;20027;-72
2023/05/05 06:52:03;;;;;;;11.25;5.13;;;;;;;-144.73;100.00;54333.81;5068593;28;20044;-72
2023/05/05 06:54:28;;;;;;;20.10;6.03;;;;;;;-144.73;99.98;54284.56;5070604;28;20020;-72
2023/05/05 06:56:54;;;;;;;18.67;6.25;;;;;;;-144.73;98.94;54278.41;5054374;28;20043;-73
2023/05/05 06:59:20;;;;;;;20.02;5.65;;;;;;;-144.73;98.02;54296.88;5054668;28;20077;-72
2023/05/05 07:01:45;;;;;;;20.55;5.88;;;;;;;-144.73;97.31;54300.97;5054586;28;20040;-72
2023/05/05 07:04:11;;;;;;;18.45;5.20;;;;;;;-144.73;96.59;54317.38;5050473;28;20024;-72
2023/05/05 07:06:36;;;;;;;22.98;6.03;;;;;;;-144.73;94.51;54305.06;5051634;28;20041;-72
2023/05/05 07:09:03;;;;;;;17.25;5.10;;;;;;;-144.73;93.05;54268.13;5052361;28;20027;-73
2023/05/05 07:11:28;;;;;;;15.80;6.05;;;;;;;-144.73;91.79;54292.75;5047053;28;20048;-72
2023/05/05 07:13:54;;;;;;;12.45;5.35;;;;;;;-144.73;90.69;54268.13;5067848;28;20406;-72
2023/05/05 07:16:19;;;;;;;17.48;6.03;;;;;;;-144.73;89.82;54294.81;5046423;28;20037;-72
2023/05/05 07:18:45;;;;;;;20.45;6.30;;;;;;;-144.73;91.20;54331.75;5046757;28;20028;-72
2023/05/05 07:21:10;;;;;;;18.70;6.00;;;;;;;-144.73;91.70;54305.06;5069055;28;20037;-73
2023/05/05 07:23:36;;;;;;;20.23;5.40;;;;;;;-144.73;90.90;54276.34;5068285;28;20040;-72
2023/05/05 07:26:02;;;;;;;15.88;5.68;;;;;;;-144.73;90.18;54296.88;5046415;28;20097;-72
2023/05/05 07:28:28;;;;;;;23.75;6.50;;;;;;;-144.73;89.40;54292.75;5076462;28;20449;-72
2023/05/05 07:30:53;;;;;;;15.68;5.90;;;;;;;-144.73;88.97;54300.97;5064246;28;20043;-72
2023/05/05 07:33:19;;;;;;;19.30;5.82;;;;;;;-144.73;89.71;54313.28;5049417;28;20051;-72
2023/05/05 07:35:44;;;;;;;20.83;5.90;;;;;;;-144.73;88.89;54227.09;5046872;28;20050;-72
2023/05/05 07:38:10;;;;;;;21.05;6.28;;;;;;;-144.73;89.49;54303.03;5049091;28;20048;-70
2023/05/05 07:40:36;;;;;;;21.98;6.10;;;;;;;-144.73;87.88;54282.50;5049159;28;20017;-71
2023/05/05 07:43:01;;;;;;;15.38;5.88;;;;;;;-144.73;88.42;54284.56;5046719;28;20118;-71
2023/05/05 07:45:27;;;;;;;20.10;6.07;;;;;;;-144.73;86.89;54296.88;5043915;28;20016;-72
2023/05/05 07:47:53;;;;;;;13.15;5.15;;;;;;;-144.73;86.89;54259.91;5046072;28;20044;-71
2023/05/05 07:50:19;;;;;;;17.10;5.50;;;;;;;-144.73;86.13;54296.88;5059134;28;20055;-71
2023/05/05 07:52:45;;;;;;;21.25;7.72;;;;;;;-144.73;86.09;54288.66;5041423;28;20047;-71
2023/05/05 07:55:10;;;;;;;17.25;5.88;;;;;;;-144.73;85.85;54268.13;5041331;28;20146;-72
2023/05/05 07:57:36;;;;;;;17.08;5.82;;;;;;;-144.73;84.55;54276.34;5045796;28;20045;-72
2023/05/05 08:00:02;;;;;;;15.05;5.88;;;;;;;-144.73;85.21;54305.06;5061084;28;20028;-72
2023/05/05 08:02:27;;;;;;;16.90;5.85;;;;;;;-144.73;83.65;54259.91;5044547;28;20032;-72
2023/05/05 08:04:53;;;;;;;23.77;6.28;;;;;;;-144.73;84.40;54284.56;5044232;28;20036;-72
2023/05/05 08:07:18;;;;;;;34.47;6.53;;;;;;;-144.73;82.26;54329.72;5058698;28;20037;-71
2023/05/05 08:09:43;;;;;;;16.13;5.18;;;;;;;-144.73;81.31;54288.66;5043021;28;20032;-72
2023/05/05 08:12:11;;;;;;;21.40;6.13;;;;;;;-144.73;82.27;54288.66;5056520;28;20395;-71
2023/05/05 08:14:37;;;;;;;31.13;7.18;;;;;;;-144.73;81.74;54243.50;5035238;28;20494;-72
2023/05/05 08:17:03;;;;;;;21.00;6.10;;;;;;;-144.73;81.23;54290.72;5042098;28;20041;-72
2023/05/05 08:19:28;;;;;;;21.65;6.78;;;;;;;-144.73;80.21;54288.66;5058651;28;20399;-72
2023/05/05 08:21:53;;;;;;;16.13;5.35;;;;;;;-144.73;80.44;54227.09;5057220;28;20037;-72
2023/05/05 08:24:19;;;;;;;20.40;6.43;;;;;;;-144.73;81.54;54284.56;5042728;28;20024;-72
2023/05/05 08:26:44;;;;;;;38.03;7.38;;;;;;;-144.73;80.15;54276.34;5058680;28;20028;-72
2023/05/05 08:29:09;;;;;;;14.77;5.75;;;;;;;-144.73;78.63;54225.03;5060535;28;20029;-72
2023/05/05 08:31:35;;;;;;;91.60;8.82;;;;;;;-144.73;75.65;54239.41;5062879;28;20052;-72
2023/05/05 08:34:01;;;;;;;64.47;7.43;;;;;;;-144.73;74.75;54259.91;5046550;28;20082;-72
2023/05/05 08:36:27;;;;;;;28.02;7.03;;;;;;;-144.73;74.55;54255.81;5046777;28;20525;-72
2023/05/05 08:38:53;;;;;;;20.75;5.88;;;;;;;-144.73;72.94;54243.50;5045326;28;20025;-72
2023/05/05 08:41:19;;;;;;;30.00;6.05;;;;;;;-144.73;71.15;54251.72;5043698;28;20033;-72
2023/05/05 08:43:48;;;;;;;19.27;6.65;;;;;;;-144.73;71.59;54231.19;5040972;28;20095;-72
2023/05/05 08:46:13;;;;;;;24.45;6.38;;;;;;;-144.73;71.11;54218.88;5046293;28;20036;-72
2023/05/05 08:48:41;;;;;;;16.83;6.32;;;;;;;-144.73;69.84;54259.91;5041763;28;20035;-72
2023/05/05 08:51:08;;;;;;;19.25;5.82;;;;;;;-144.73;69.28;54243.50;5057030;28;20091;-72
2023/05/05 08:53:57;;;;;;;21.02;6.50;;;;;;;-144.73;69.14;54300.97;5059401;28;20037;-72
2023/05/05 08:56:26;;;;;;;32.53;6.93;;;;;;;-144.73;70.34;54247.59;5043023;28;20029;-73
2023/05/05 08:58:51;;;;;;;17.67;5.57;;;;;;;-144.73;71.57;54261.97;5045248;28;20047;-72
2023/05/05 09:01:17;;;;;;;21.75;6.18;;;;;;;-144.73;68.70;54243.50;5046116;28;20364;-72
2023/05/05 09:03:43;;;;;;;23.08;6.15;;;;;;;-144.73;67.96;54237.34;5040627;28;20028;-72
2023/05/05 09:06:09;;;;;;;29.35;5.30;;;;;;;-144.73;68.20;54282.50;5044235;28;20097;-72
2023/05/05 09:08:36;;;;;;;24.80;5.95;;;;;;;-144.73;67.35;54296.88;5060491;28;20036;-72
2023/05/05 09:11:01;;;;;;;18.60;6.00;;;;;;;-144.73;67.27;54249.66;5068558;28;20594;-72
2023/05/05 09:13:29;;;;;;;16.85;6.22;;;;;;;-144.73;66.36;54227.09;5053443;28;20031;-72
2023/05/05 09:15:54;;;;;;;16.02;5.30;;;;;;;-144.73;66.68;54247.59;5040348;28;20030;-72
2023/05/05 09:18:20;;;;;;;28.23;6.30;;;;;;;-144.73;65.87;54278.41;5045888;28;20024;-72
2023/05/05 09:20:45;;;;;;;19.52;6.13;;;;;;;-144.73;66.15;54249.66;5054141;28;20497;-72
2023/05/05 09:23:13;;;;;;;40.25;6.57;;;;;;;-144.73;66.25;54255.81;5047349;28;20082;-72
2023/05/05 09:25:40;;;;;;;17.38;5.55;;;;;;;-144.73;65.47;54235.28;5043629;28;20032;-72
2023/05/05 09:28:11;;;;;;;27.58;5.55;;;;;;;-144.73;65.81;54276.34;5046625;28;20033;-72
2023/05/05 09:30:37;;;;;;;13.00;6.45;;;;;;;-144.73;65.65;54276.34;5061267;28;20028;-72
2023/05/05 09:33:03;;;;;;;14.68;5.60;;;;;;;-144.73;65.59;54251.72;5043987;28;20040;-72
2023/05/05 09:35:47;;;;;;;17.08;5.72;;;;;;;-144.73;65.77;54259.91;5058082;28;20028;-72
2023/05/05 09:38:12;;;;;;;141.38;12.40;;;;;;;-144.73;65.32;54231.19;5073247;28;20036;-72
2023/05/05 09:41:05;;;;;;;26.50;6.70;;;;;;;-144.73;65.44;54282.50;5063871;28;20029;-72
2023/05/05 09:43:49;;;;;;;37.22;6.78;;;;;;;-144.73;65.92;54276.34;5057649;28;20050;-71
2023/05/05 09:46:14;;;;;;;13.25;6.30;;;;;;;-144.73;67.04;54276.34;5055101;28;20098;-72
2023/05/05 09:48:39;;;;;;;15.70;6.10;;;;;;;-144.73;68.12;54296.88;5039792;28;20032;-71
2023/05/05 09:51:05;;;;;;;20.08;6.88;;;;;;;-144.73;67.54;54280.44;5077946;28;20047;-72
2023/05/05 09:53:38;;;;;;;24.63;4.80;;;;;;;-144.73;66.81;54282.50;5042069;28;20032;-72
2023/05/05 09:56:04;;;;;;;23.58;5.63;;;;;;;-144.73;67.42;54276.34;5045428;28;20028;-72
2023/05/05 09:58:30;;;;;;;24.13;7.15;;;;;;;-144.73;68.30;54280.44;5059022;28;20024;-72
2023/05/05 10:00:56;;;;;;;23.23;5.57;;;;;;;-144.73;68.37;54255.81;5056713;28;20026;-72
2023/05/05 10:03:22;;;;;;;16.05;6.05;;;;;;;-144.73;68.74;54280.44;5061760;28;20027;-73
2023/05/05 10:05:56;;;;;;;16.10;5.55;;;;;;;-144.73;68.60;54276.34;5041373;28;20032;-72
2023/05/05 10:08:30;;;;;;;16.80;5.10;;;;;;;-144.73;67.82;54296.88;5057653;28;20024;-72
2023/05/05 10:10:59;;;;;;;24.08;6.40;;;;;;;-144.73;67.47;54292.75;5045482;28;20103;-73
2023/05/05 10:13:25;;;;;;;12.20;5.22;;;;;;;-144.73;66.19;54255.81;5043493;28;20535;-72
2023/05/05 10:15:52;;;;;;;13.68;5.68;;;;;;;-144.73;65.13;54255.81;5054308;28;20052;-72
2023/05/05 10:18:23;;;;;;;21.38;5.72;;;;;;;-144.73;63.73;54255.81;5044418;28;20394;-72
2023/05/05 10:21:00;;;;;;;14.13;5.50;;;;;;;-144.73;62.15;54247.59;5041302;28;20023;-72
2023/05/05 10:23:35;;;;;;;13.63;5.00;;;;;;;-144.73;60.67;54342.03;5059961;28;20143;-72
2023/05/05 10:26:04;;;;;;;23.27;6.30;;;;;;;-144.73;61.32;54292.75;5033175;28;20040;-72
2023/05/05 10:29:11;;;;;;;15.10;4.90;;;;;;;-144.73;60.06;54247.59;5041357;28;20090;-72
2023/05/05 10:31:44;;;;;;;22.98;6.47;;;;;;;-144.73;60.61;54227.09;4998798;28;20046;-71
2023/05/05 10:34:16;;;;;;;19.02;5.68;;;;;;;-144.73;60.84;54280.44;5037198;28;20127;-72
2023/05/05 10:36:43;;;;;;;17.17;5.28;;;;;;;-144.73;60.23;54233.25;5040661;28;20035;-71
2023/05/05 10:39:10;;;;;;;25.77;5.72;;;;;;;-144.73;60.75;54222.97;5059335;28;20482;-72
2023/05/05 10:41:36;;;;;;;21.80;5.50;;;;;;;-144.73;61.22;54239.41;5041454;28;20050;-72
2023/05/05 10:44:03;;;;;;;16.13;5.10;;;;;;;-144.73;61.18;54247.59;5039018;28;20135;-72
2023/05/05 10:46:28;;;;;;;18.40;5.00;;;;;;;-144.73;60.25;54280.44;5039664;28;20503;-72
2023/05/05 10:49:15;;;;;;;19.77;5.68;;;;;;;-144.73;59.57;54342.03;5047142;28;20031;-73
2023/05/05 10:51:53;;;;;;;14.63;4.45;;;;;;;-144.73;59.67;54294.81;5048688;28;20182;-72
2023/05/05 10:54:29;;;;;;;22.95;5.30;;;;;;;-144.73;57.87;54210.66;5046094;28;20044;-72
2023/05/05 10:56:56;;;;;;;11.63;5.10;;;;;;;-144.73;56.49;54198.34;5067799;28;20070;-73
2023/05/05 10:59:37;;;;;;;18.90;5.50;;;;;;;-144.73;54.66;54235.28;5063994;28;20107;-73
2023/05/05 11:02:22;;;;;;;18.42;5.10;;;;;;;-144.73;54.25;54268.13;5058826;28;20045;-73
2023/05/05 11:05:15;;;;;;;24.50;4.85;;;;;;;-144.73;53.45;54235.28;5056030;28;20037;-73
2023/05/05 11:07:42;;;;;;;14.32;4.60;;;;;;;-144.73;54.63;54229.13;5064667;28;20090;-72
2023/05/05 11:10:10;;;;;;;20.85;4.85;;;;;;;-144.73;53.79;54222.97;5043886;28;20060;-72
2023/05/05 11:12:50;;;;;;;20.05;4.85;;;;;;;-144.73;54.94;54276.34;5039389;28;20036;-73